Time;durP1;ratioP1;P1;durP2;ratioP2;P2;SDS_P1;SDS_P2;PMS_P1;PMS_P2;Temp;Humidity;BMP_temperature;BMP_pressure;BME280_temperature;BME280_humidity;BME280_pressure;Samples;Min_cycle;Max_cycle;Signal;HPM_P1;HPM_P2
2021/04/04 00:00:31;;;;;;;;;9.00;9.00;;;;;;;;3724838;37;17948;-56
2021/04/04 00:02:57;;;;;;;;;10.00;10.00;;;;;;;;3724788;37;17948;-55
2021/04/04 00:05:23;;;;;;;;;6.50;5.25;;;;;;;;3725085;38;17968;-56
2021/04/04 00:07:49;;;;;;;;;8.00;8.00;;;;;;;;3725116;38;20048;-57
2021/04/04 00:10:15;;;;;;;;;13.75;12.75;;;;;;;;3725230;37;20033;-56
2021/04/04 00:12:41;;;;;;;;;9.25;8.00;;;;;;;;3725355;37;17922;-57
2021/04/04 00:15:11;;;;;;;;;9.75;9.75;;;;;;;;3725293;38;17940;-55
2021/04/04 00:17:37;;;;;;;;;10.00;10.00;;;;;;;;3725277;38;17918;-55
2021/04/04 00:20:08;;;;;;;;;9.00;9.00;;;;;;;;3724704;38;19971;-56
2021/04/04 00:22:33;;;;;;;;;13.75;13.75;;;;;;;;3725080;37;19969;-56
2021/04/04 00:24:59;;;;;;;;;10.25;9.75;;;;;;;;3725074;37;19999;-55
2021/04/04 00:27:25;;;;;;;;;9.00;9.00;;;;;;;;3725257;37;17906;-56
2021/04/04 00:29:51;;;;;;;;;8.00;8.00;;;;;;;;3725189;37;17910;-56
2021/04/04 00:32:16;;;;;;;;;13.25;12.50;;;;;;;;3725220;38;17902;-56
2021/04/04 00:34:42;;;;;;;;;7.25;7.25;;;;;;;;3725256;37;17886;-56
2021/04/04 00:37:08;;;;;;;;;9.50;9.00;;;;;;;;3725141;38;17879;-55
2021/04/04 00:39:34;;;;;;;;;10.50;10.00;;;;;;;;3725303;38;17875;-55
2021/04/04 00:41:59;;;;;;;;;10.00;9.00;;;;;;;;3725347;37;17908;-55
2021/04/04 00:44:25;;;;;;;;;9.25;8.75;;;;;;;;3725129;37;17870;-55
2021/04/04 00:46:52;;;;;;;;;10.00;9.50;;;;;;;;3725165;38;17863;-55
2021/04/04 00:49:17;;;;;;;;;12.50;9.00;;;;;;;;3725206;37;19954;-55
2021/04/04 00:51:44;;;;;;;;;9.00;9.00;;;;;;;;3725349;37;17879;-55
2021/04/04 00:54:11;;;;;;;;;5.25;5.25;;;;;;;;3724954;37;17875;-55
2021/04/04 00:56:38;;;;;;;;;10.00;10.00;;;;;;;;3725235;37;19931;-55
2021/04/04 00:59:03;;;;;;;;;8.50;8.50;;;;;;;;3725060;38;19907;-54
2021/04/04 01:01:33;;;;;;;;;6.50;6.50;;;;;;;;3725076;37;20024;-54
2021/04/04 01:03:59;;;;;;;;;8.75;8.00;;;;;;;;3725165;37;17850;-54
2021/04/04 01:06:24;;;;;;;;;8.50;8.50;;;;;;;;3725261;38;19899;-54
2021/04/04 01:08:50;;;;;;;;;7.75;7.75;;;;;;;;3725194;38;17855;-54
2021/04/04 01:11:19;;;;;;;;;8.00;8.00;;;;;;;;3725430;37;17838;-54
2021/04/04 01:13:55;;;;;;;;;8.00;8.00;;;;;;;;3725156;37;19917;-54
2021/04/04 01:16:30;;;;;;;;;12.75;9.00;;;;;;;;3724948;37;19918;-54
2021/04/04 01:19:15;;;;;;;;;6.75;6.00;;;;;;;;3725159;37;19901;-55
2021/04/04 01:21:48;;;;;;;;;7.00;6.75;;;;;;;;3725299;37;19895;-55
2021/04/04 01:24:31;;;;;;;;;8.75;8.75;;;;;;;;3725245;38;19895;-56
2021/04/04 01:27:10;;;;;;;;;9.75;9.75;;;;;;;;3725312;37;19920;-55
2021/04/04 01:29:39;;;;;;;;;8.00;8.00;;;;;;;;3725290;37;19885;-55
2021/04/04 01:32:05;;;;;;;;;11.75;9.75;;;;;;;;3724678;37;19854;-55
2021/04/04 01:34:32;;;;;;;;;10.50;9.75;;;;;;;;3725291;37;19914;-54
2021/04/04 01:37:00;;;;;;;;;9.75;9.00;;;;;;;;3725171;38;19934;-57
2021/04/04 01:39:29;;;;;;;;;11.50;8.50;;;;;;;;3725317;38;19890;-56
2021/04/04 01:41:56;;;;;;;;;9.75;8.25;;;;;;;;3725420;38;19868;-56
2021/04/04 01:44:23;;;;;;;;;10.50;9.00;;;;;;;;3725363;38;19884;-56
2021/04/04 01:46:50;;;;;;;;;10.25;10.25;;;;;;;;3725244;38;19832;-57
2021/04/04 01:49:17;;;;;;;;;12.00;11.25;;;;;;;;3725398;37;19854;-56
2021/04/04 01:51:44;;;;;;;;;12.00;11.50;;;;;;;;3725313;38;19905;-57
2021/04/04 01:54:11;;;;;;;;;11.25;10.25;;;;;;;;3725274;37;19865;-56
2021/04/04 01:56:37;;;;;;;;;12.75;12.00;;;;;;;;3725384;38;19888;-57
2021/04/04 01:59:04;;;;;;;;;13.25;11.25;;;;;;;;3725402;38;19897;-56
2021/04/04 02:01:31;;;;;;;;;9.00;8.75;;;;;;;;3725289;38;19867;-56
2021/04/04 02:03:58;;;;;;;;;10.00;9.50;;;;;;;;3725304;37;19834;-56
2021/04/04 02:06:24;;;;;;;;;10.00;10.00;;;;;;;;3725222;38;20139;-56
2021/04/04 02:08:51;;;;;;;;;11.50;9.00;;;;;;;;3725282;38;19871;-55
2021/04/04 02:11:18;;;;;;;;;13.50;13.00;;;;;;;;3725215;37;19863;-55
2021/04/04 02:13:44;;;;;;;;;12.50;11.25;;;;;;;;3725151;37;19859;-56
2021/04/04 02:16:10;;;;;;;;;13.75;13.75;;;;;;;;3725227;37;19869;-56
2021/04/04 02:18:37;;;;;;;;;11.50;11.00;;;;;;;;3725237;38;19830;-55
2021/04/04 02:21:04;;;;;;;;;10.50;10.50;;;;;;;;3725061;37;19838;-56
2021/04/04 02:23:31;;;;;;;;;13.00;13.00;;;;;;;;3725276;38;19850;-56
2021/04/04 02:25:58;;;;;;;;;13.50;12.25;;;;;;;;3725312;38;19837;-56
2021/04/04 02:28:25;;;;;;;;;12.50;11.25;;;;;;;;3725200;38;19821;-56
2021/04/04 02:30:52;;;;;;;;;13.50;12.75;;;;;;;;3725271;38;19849;-55
2021/04/04 02:33:29;;;;;;;;;12.75;11.50;;;;;;;;3725303;37;19845;-55
2021/04/04 02:36:05;;;;;;;;;15.75;15.00;;;;;;;;3725461;37;19809;-55
2021/04/04 02:38:37;;;;;;;;;15.75;12.75;;;;;;;;3724984;37;19856;-54
2021/04/04 02:41:04;;;;;;;;;16.00;15.00;;;;;;;;3725334;37;19830;-55
2021/04/04 02:43:32;;;;;;;;;11.00;9.75;;;;;;;;3724690;37;19821;-56
2021/04/04 02:46:03;;;;;;;;;28.00;21.00;;;;;;;;3724941;37;19798;-56
2021/04/04 02:48:31;;;;;;;;;32.25;31.25;;;;;;;;3725069;37;19838;-57
2021/04/04 02:50:58;;;;;;;;;18.00;17.00;;;;;;;;3725080;38;19846;-55
2021/04/04 02:53:25;;;;;;;;;16.75;16.75;;;;;;;;3725382;38;19807;-56
2021/04/04 02:55:52;;;;;;;;;21.50;20.00;;;;;;;;3725223;37;19806;-56
2021/04/04 02:58:18;;;;;;;;;19.75;17.75;;;;;;;;3724886;38;19813;-57
2021/04/04 03:00:44;;;;;;;;;16.50;14.75;;;;;;;;3725190;37;19783;-57
2021/04/04 03:03:10;;;;;;;;;20.75;19.50;;;;;;;;3725163;38;19794;-55
2021/04/04 03:05:36;;;;;;;;;17.75;17.75;;;;;;;;3725216;38;17698;-56
2021/04/04 03:08:04;;;;;;;;;18.50;18.50;;;;;;;;3725129;38;17692;-56
2021/04/04 03:10:37;;;;;;;;;22.25;19.75;;;;;;;;3724804;37;19771;-57
2021/04/04 03:13:03;;;;;;;;;18.75;17.75;;;;;;;;3724775;37;19803;-56
2021/04/04 03:15:30;;;;;;;;;21.00;18.25;;;;;;;;3724797;37;19769;-55
2021/04/04 03:17:57;;;;;;;;;20.75;20.75;;;;;;;;3725089;37;19801;-55
2021/04/04 03:20:25;;;;;;;;;16.75;16.75;;;;;;;;3725283;38;19769;-55
2021/04/04 03:22:51;;;;;;;;;18.50;18.00;;;;;;;;3725222;37;19781;-56
2021/04/04 03:25:18;;;;;;;;;20.75;17.50;;;;;;;;3725024;37;19761;-56
2021/04/04 03:27:45;;;;;;;;;19.50;19.25;;;;;;;;3725061;38;19798;-57
2021/04/04 03:32:57;;;;;;;;;14.00;14.00;;;;;;;;3725092;37;19727;-55
2021/04/04 03:35:24;;;;;;;;;19.50;16.00;;;;;;;;3725112;37;19752;-55
2021/04/04 03:37:50;;;;;;;;;17.00;16.00;;;;;;;;3725045;37;19750;-56
2021/04/04 03:40:17;;;;;;;;;21.50;17.00;;;;;;;;3725114;37;19744;-56
2021/04/04 03:42:43;;;;;;;;;20.75;19.50;;;;;;;;3725005;37;19734;-55
2021/04/04 03:45:10;;;;;;;;;21.50;18.75;;;;;;;;3725231;37;19747;-55
2021/04/04 03:47:38;;;;;;;;;24.00;21.75;;;;;;;;3725106;38;19740;-56
2021/04/04 03:50:08;;;;;;;;;18.75;17.25;;;;;;;;3725063;37;19752;-56
2021/04/04 03:52:34;;;;;;;;;22.50;21.50;;;;;;;;3724840;37;19754;-54
2021/04/04 03:55:01;;;;;;;;;23.25;21.25;;;;;;;;3724910;37;19747;-56
2021/04/04 03:57:27;;;;;;;;;24.00;23.00;;;;;;;;3725117;37;19741;-55
2021/04/04 03:59:53;;;;;;;;;26.50;23.25;;;;;;;;3725182;37;19711;-56
2021/04/04 04:02:23;;;;;;;;;27.50;26.50;;;;;;;;3725212;38;19772;-56
2021/04/04 04:04:50;;;;;;;;;3.00;3.00;;;;;;;;3725374;37;19719;-56
2021/04/04 04:07:17;;;;;;;;;24.00;21.00;;;;;;;;3725163;37;19676;-55
2021/04/04 04:09:43;;;;;;;;;20.50;20.50;;;;;;;;3724886;37;19712;-56
2021/04/04 04:12:10;;;;;;;;;16.75;16.25;;;;;;;;3725241;38;19720;-56
2021/04/04 04:14:37;;;;;;;;;19.50;16.50;;;;;;;;3725175;37;19698;-55
2021/04/04 04:17:06;;;;;;;;;20.25;19.75;;;;;;;;3725219;38;19717;-55
2021/04/04 04:19:32;;;;;;;;;19.25;17.50;;;;;;;;3724906;38;17620;-56
2021/04/04 04:21:57;;;;;;;;;21.75;20.75;;;;;;;;3725239;38;19701;-56
2021/04/04 04:24:25;;;;;;;;;24.00;22.25;;;;;;;;3725347;37;17603;-55
2021/04/04 04:26:51;;;;;;;;;23.25;21.00;;;;;;;;3725254;37;19679;-55
2021/04/04 04:29:19;;;;;;;;;24.00;22.25;;;;;;;;3725151;38;19679;-56
2021/04/04 04:31:48;;;;;;;;;24.75;23.50;;;;;;;;3725278;38;19676;-56
2021/04/04 04:34:14;;;;;;;;;25.75;24.00;;;;;;;;3725299;38;19688;-56
2021/04/04 04:36:41;;;;;;;;;24.25;21.50;;;;;;;;3724989;38;19662;-55
2021/04/04 04:39:08;;;;;;;;;22.75;22.50;;;;;;;;3725095;38;19659;-54
2021/04/04 04:41:44;;;;;;;;;29.75;29.25;;;;;;;;3725086;37;19680;-56
2021/04/04 04:44:12;;;;;;;;;21.50;21.00;;;;;;;;3725120;37;19697;-55
2021/04/04 04:46:39;;;;;;;;;23.25;22.25;;;;;;;;3725169;38;19668;-56
2021/04/04 04:49:07;;;;;;;;;25.00;23.75;;;;;;;;3725161;38;19665;-56
2021/04/04 04:51:33;;;;;;;;;21.50;20.25;;;;;;;;3725121;37;19640;-56
2021/04/04 04:53:59;;;;;;;;;23.25;21.75;;;;;;;;3725151;38;19639;-56
2021/04/04 04:56:26;;;;;;;;;22.00;19.50;;;;;;;;3725273;37;17532;-55
2021/04/04 04:58:52;;;;;;;;;24.00;23.50;;;;;;;;3725136;37;17558;-56
2021/04/04 05:01:20;;;;;;;;;20.00;19.50;;;;;;;;3724783;37;19651;-55
2021/04/04 05:03:48;;;;;;;;;20.25;19.75;;;;;;;;3725296;37;17555;-56
2021/04/04 05:06:13;;;;;;;;;10.50;10.50;;;;;;;;3725206;37;19655;-55
2021/04/04 05:08:42;;;;;;;;;23.00;22.00;;;;;;;;3725092;38;19713;-54
2021/04/04 05:11:10;;;;;;;;;20.50;20.00;;;;;;;;3725287;37;17529;-54
2021/04/04 05:13:38;;;;;;;;;20.50;20.00;;;;;;;;3725189;38;19636;-57
2021/04/04 05:16:06;;;;;;;;;23.50;23.50;;;;;;;;3725275;38;19627;-55
2021/04/04 05:18:39;;;;;;;;;24.50;24.00;;;;;;;;3725304;38;19611;-55
2021/04/04 05:21:06;;;;;;;;;23.25;22.75;;;;;;;;3724792;37;19597;-55
2021/04/04 05:23:32;;;;;;;;;29.50;28.00;;;;;;;;3725149;38;19621;-57
2021/04/04 05:25:59;;;;;;;;;28.75;28.75;;;;;;;;3725550;37;19651;-56
2021/04/04 05:28:25;;;;;;;;;28.25;27.25;;;;;;;;3725399;37;17490;-55
2021/04/04 05:30:51;;;;;;;;;33.75;32.50;;;;;;;;3725324;38;19623;-57
2021/04/04 05:33:23;;;;;;;;;39.00;36.50;;;;;;;;3725301;38;19637;-55
2021/04/04 05:35:49;;;;;;;;;40.75;37.50;;;;;;;;3725208;37;17498;-55
2021/04/04 05:38:16;;;;;;;;;40.75;38.00;;;;;;;;3725166;38;19631;-55
2021/04/04 05:40:43;;;;;;;;;39.25;36.25;;;;;;;;3725369;38;17472;-55
2021/04/04 05:43:12;;;;;;;;;39.75;37.50;;;;;;;;3725277;38;19595;-54
2021/04/04 05:46:01;;;;;;;;;50.00;41.50;;;;;;;;3725303;37;17499;-55
2021/04/04 05:48:39;;;;;;;;;44.00;36.75;;;;;;;;3725182;37;19642;-54
2021/04/04 05:51:22;;;;;;;;;53.50;42.50;;;;;;;;3725232;37;19643;-55
2021/04/04 05:54:08;;;;;;;;;42.25;37.75;;;;;;;;3725387;38;19656;-55
2021/04/04 05:56:41;;;;;;;;;46.75;39.75;;;;;;;;3725235;37;20612;-56
2021/04/04 05:59:10;;;;;;;;;50.00;43.50;;;;;;;;3725280;37;19632;-57
2021/04/04 06:01:54;;;;;;;;;48.75;42.75;;;;;;;;3725303;38;19640;-55
2021/04/04 06:04:38;;;;;;;;;39.25;36.50;;;;;;;;3725308;37;20710;-54
2021/04/04 06:07:25;;;;;;;;;47.50;41.75;;;;;;;;3725320;37;19673;-56
2021/04/04 06:10:23;;;;;;;;;45.75;38.75;;;;;;;;3725359;37;19652;-55
2021/04/04 06:13:00;;;;;;;;;47.00;39.50;;;;;;;;3725764;38;20626;-54
2021/04/04 06:15:39;;;;;;;;;42.25;37.50;;;;;;;;3725472;38;20584;-56
2021/04/04 06:18:27;;;;;;;;;40.00;37.00;;;;;;;;3725325;38;20583;-57
2021/04/04 06:21:09;;;;;;;;;48.25;42.00;;;;;;;;3725417;37;20571;-57
2021/04/04 06:24:10;;;;;;;;;42.50;38.00;;;;;;;;3725349;38;20646;-56
2021/04/04 06:26:53;;;;;;;;;36.50;34.25;;;;;;;;3725539;38;20600;-56
2021/04/04 06:29:27;;;;;;;;;41.50;36.00;;;;;;;;3725590;37;20614;-56
2021/04/04 06:32:06;;;;;;;;;41.50;34.75;;;;;;;;3725556;38;20574;-54
2021/04/04 06:34:37;;;;;;;;;37.50;30.25;;;;;;;;3725444;37;20670;-54
2021/04/04 06:37:21;;;;;;;;;37.75;33.25;;;;;;;;3725312;38;20562;-55
2021/04/04 06:40:00;;;;;;;;;38.50;36.75;;;;;;;;3725453;38;20608;-56
2021/04/04 06:42:56;;;;;;;;;38.00;35.50;;;;;;;;3725247;37;20543;-56
2021/04/04 06:45:50;;;;;;;;;36.50;34.75;;;;;;;;3725245;37;20548;-59
2021/04/04 06:48:35;;;;;;;;;29.75;27.75;;;;;;;;3725224;38;20610;-57
2021/04/04 06:51:04;;;;;;;;;38.25;35.25;;;;;;;;3725077;37;20531;-54
2021/04/04 06:54:02;;;;;;;;;24.00;24.00;;;;;;;;3725313;37;20549;-54
2021/04/04 06:56:34;;;;;;;;;33.50;29.50;;;;;;;;3725334;38;20505;-55
2021/04/04 06:59:34;;;;;;;;;33.75;31.25;;;;;;;;3725346;38;20515;-54
2021/04/04 07:02:02;;;;;;;;;32.00;30.75;;;;;;;;3725269;38;20502;-54
2021/04/04 07:04:38;;;;;;;;;30.00;26.75;;;;;;;;3725266;37;20551;-52
2021/04/04 07:07:26;;;;;;;;;31.75;28.00;;;;;;;;3725135;37;20503;-52
2021/04/04 07:10:17;;;;;;;;;34.50;27.25;;;;;;;;3725344;38;20532;-52
2021/04/04 07:13:01;;;;;;;;;27.50;25.50;;;;;;;;3725175;37;20507;-55
2021/04/04 07:15:48;;;;;;;;;37.00;32.75;;;;;;;;3725335;37;20529;-55
2021/04/04 07:18:39;;;;;;;;;41.75;36.00;;;;;;;;3725334;38;20462;-55
2021/04/04 07:21:25;;;;;;;;;30.50;30.50;;;;;;;;3725203;37;20544;-54
2021/04/04 07:24:13;;;;;;;;;35.50;31.50;;;;;;;;3725408;37;20501;-54
2021/04/04 07:26:47;;;;;;;;;31.25;30.25;;;;;;;;3725327;37;20503;-53
2021/04/04 07:29:32;;;;;;;;;19.75;19.75;;;;;;;;3725180;38;20468;-53
2021/04/04 07:32:24;;;;;;;;;34.50;32.25;;;;;;;;3725318;37;20465;-55
2021/04/04 07:35:05;;;;;;;;;33.75;27.75;;;;;;;;3725509;38;20477;-55
2021/04/04 07:37:52;;;;;;;;;33.75;31.00;;;;;;;;3725271;37;20463;-55
2021/04/04 07:40:22;;;;;;;;;27.25;26.25;;;;;;;;3725269;38;20463;-53
2021/04/04 07:43:03;;;;;;;;;30.50;29.50;;;;;;;;3725238;37;20451;-53
2021/04/04 07:45:45;;;;;;;;;22.75;22.25;;;;;;;;3725311;38;20464;-55
2021/04/04 07:48:23;;;;;;;;;27.50;27.50;;;;;;;;3724096;37;20460;-55
2021/04/04 07:51:15;;;;;;;;;26.75;23.50;;;;;;;;3725207;37;20449;-54
2021/04/04 07:53:59;;;;;;;;;30.00;27.00;;;;;;;;3725265;37;20432;-55
2021/04/04 07:56:57;;;;;;;;;24.50;21.50;;;;;;;;3725384;38;20399;-56
2021/04/04 07:59:51;;;;;;;;;18.75;18.75;;;;;;;;3725436;37;20438;-55
2021/04/04 08:02:19;;;;;;;;;27.75;25.25;;;;;;;;3725441;37;20422;-56
2021/04/04 08:04:50;;;;;;;;;22.75;22.50;;;;;;;;3725475;38;20399;-55
2021/04/04 08:07:19;;;;;;;;;24.25;24.25;;;;;;;;3725294;37;20406;-56
2021/04/04 08:09:48;;;;;;;;;20.75;20.00;;;;;;;;3725548;37;20430;-55
2021/04/04 08:12:26;;;;;;;;;23.00;22.50;;;;;;;;3725054;38;20411;-55
2021/04/04 08:15:17;;;;;;;;;19.50;18.50;;;;;;;;3725406;37;20381;-55
2021/04/04 08:17:44;;;;;;;;;16.50;14.50;;;;;;;;3725276;38;20389;-56
2021/04/04 08:20:25;;;;;;;;;24.25;24.25;;;;;;;;3725403;37;20384;-72
2021/04/04 08:22:58;;;;;;;;;27.50;23.75;;;;;;;;3724985;37;20407;-55
2021/04/04 08:25:35;;;;;;;;;27.75;26.75;;;;;;;;3725437;38;20413;-55
2021/04/04 08:28:18;;;;;;;;;23.00;21.75;;;;;;;;3725212;37;20391;-58
2021/04/04 08:30:55;;;;;;;;;21.25;21.25;;;;;;;;3725155;38;20420;-54
2021/04/04 08:33:24;;;;;;;;;25.00;22.50;;;;;;;;3725155;37;20382;-54
2021/04/04 08:35:52;;;;;;;;;26.00;25.25;;;;;;;;3725314;38;20349;-54
2021/04/04 08:38:21;;;;;;;;;20.25;20.00;;;;;;;;3725377;38;20362;-55
2021/04/04 08:40:48;;;;;;;;;27.25;25.75;;;;;;;;3725321;38;20461;-54
2021/04/04 08:43:14;;;;;;;;;16.50;15.50;;;;;;;;3725118;38;20362;-57
2021/04/04 08:45:47;;;;;;;;;20.00;20.00;;;;;;;;3725350;38;20361;-56
2021/04/04 08:48:14;;;;;;;;;18.50;18.50;;;;;;;;3725243;37;20370;-54
2021/04/04 08:50:43;;;;;;;;;20.25;17.75;;;;;;;;3725258;37;20320;-54
2021/04/04 08:53:23;;;;;;;;;21.25;21.25;;;;;;;;3724946;37;20334;-57
2021/04/04 08:55:49;;;;;;;;;17.75;17.50;;;;;;;;3725362;37;20607;-55
2021/04/04 08:58:16;;;;;;;;;22.50;21.50;;;;;;;;3725211;37;20336;-55
2021/04/04 09:00:45;;;;;;;;;20.50;20.00;;;;;;;;3725062;37;20347;-54
2021/04/04 09:03:21;;;;;;;;;13.75;13.25;;;;;;;;3725394;38;20330;-53
2021/04/04 09:05:49;;;;;;;;;16.25;16.25;;;;;;;;3725219;37;20320;-55
2021/04/04 09:08:17;;;;;;;;;18.00;18.00;;;;;;;;3725444;37;20318;-55
2021/04/04 09:10:45;;;;;;;;;13.25;13.25;;;;;;;;3725313;37;20319;-53
2021/04/04 09:13:15;;;;;;;;;16.00;15.75;;;;;;;;3725491;37;20310;-52
2021/04/04 09:15:49;;;;;;;;;13.50;13.50;;;;;;;;3725271;38;20417;-53
2021/04/04 09:18:16;;;;;;;;;15.50;15.50;;;;;;;;3725282;38;20278;-55
2021/04/04 09:20:46;;;;;;;;;8.25;8.00;;;;;;;;3725241;37;20298;-55
2021/04/04 09:23:15;;;;;;;;;13.00;13.00;;;;;;;;3725321;38;20240;-57
2021/04/04 09:26:06;;;;;;;;;11.00;11.00;;;;;;;;3725195;37;20291;-52
2021/04/04 09:28:34;;;;;;;;;16.75;16.25;;;;;;;;3725203;37;20288;-54
2021/04/04 09:31:03;;;;;;;;;15.50;11.50;;;;;;;;3725276;38;20313;-54
2021/04/04 09:33:34;;;;;;;;;17.50;15.50;;;;;;;;3725286;37;20282;-52
2021/04/04 09:36:05;;;;;;;;;12.25;10.00;;;;;;;;3725423;37;20261;-54
2021/04/04 09:38:38;;;;;;;;;13.50;13.50;;;;;;;;3725301;37;20279;-54
2021/04/04 09:41:05;;;;;;;;;12.50;10.25;;;;;;;;3725183;37;20304;-53
2021/04/04 09:43:37;;;;;;;;;13.25;13.25;;;;;;;;3725314;38;20263;-52
2021/04/04 09:46:04;;;;;;;;;13.00;12.50;;;;;;;;3725313;37;20275;-53
2021/04/04 09:48:30;;;;;;;;;10.75;10.75;;;;;;;;3723425;37;20279;-52
2021/04/04 09:51:09;;;;;;;;;10.25;9.25;;;;;;;;3724561;38;20392;-53
2021/04/04 09:53:40;;;;;;;;;10.25;10.00;;;;;;;;3725258;37;18153;-51
2021/04/04 09:56:07;;;;;;;;;11.50;11.50;;;;;;;;3725572;37;20281;-57
2021/04/04 09:58:32;;;;;;;;;12.50;12.50;;;;;;;;3724812;38;20254;-52
2021/04/04 10:00:59;;;;;;;;;8.50;7.00;;;;;;;;3725219;38;20255;-52
2021/04/04 10:03:25;;;;;;;;;13.50;13.00;;;;;;;;3725280;37;18163;-51
2021/04/04 10:05:52;;;;;;;;;16.25;15.25;;;;;;;;3725127;37;20233;-51
2021/04/04 10:08:20;;;;;;;;;12.50;10.25;;;;;;;;3725232;38;20251;-54
2021/04/04 10:10:50;;;;;;;;;13.00;12.75;;;;;;;;3725225;37;20225;-56
2021/04/04 10:13:17;;;;;;;;;12.75;11.75;;;;;;;;3725231;38;20264;-53
2021/04/04 10:15:49;;;;;;;;;11.00;9.75;;;;;;;;3725368;37;20242;-52
2021/04/04 10:18:17;;;;;;;;;10.75;10.50;;;;;;;;3725394;37;20189;-58
2021/04/04 10:20:47;;;;;;;;;11.50;11.50;;;;;;;;3725175;38;20239;-53
2021/04/04 10:23:13;;;;;;;;;11.50;10.25;;;;;;;;3725191;38;20197;-52
2021/04/04 10:25:59;;;;;;;;;13.25;10.00;;;;;;;;3725326;38;20192;-54
2021/04/04 10:28:25;;;;;;;;;9.75;9.75;;;;;;;;3725397;38;20243;-52
2021/04/04 10:30:54;;;;;;;;;13.50;12.50;;;;;;;;3725371;38;20177;-51
2021/04/04 10:33:21;;;;;;;;;14.50;13.25;;;;;;;;3724756;37;20186;-53
2021/04/04 10:35:47;;;;;;;;;15.00;13.00;;;;;;;;3724989;38;20226;-51
2021/04/04 10:38:15;;;;;;;;;14.75;13.00;;;;;;;;3725275;37;20208;-52
2021/04/04 10:40:46;;;;;;;;;14.75;13.00;;;;;;;;3725361;37;20203;-52
2021/04/04 10:43:12;;;;;;;;;16.00;14.00;;;;;;;;3725263;38;20199;-51
2021/04/04 10:45:53;;;;;;;;;15.00;13.75;;;;;;;;3725378;37;20224;-52
2021/04/04 10:48:21;;;;;;;;;13.00;13.00;;;;;;;;3725471;37;20207;-52
2021/04/04 10:50:49;;;;;;;;;11.25;11.25;;;;;;;;3725264;37;20200;-52
2021/04/04 10:53:17;;;;;;;;;11.50;11.25;;;;;;;;3726315;37;20173;-54
2021/04/04 10:55:44;;;;;;;;;13.75;12.50;;;;;;;;3726511;37;20171;-52
2021/04/04 10:58:10;;;;;;;;;12.50;11.75;;;;;;;;3725892;38;20197;-52
2021/04/04 11:00:36;;;;;;;;;9.00;8.00;;;;;;;;3726082;37;20185;-52
2021/04/04 11:03:02;;;;;;;;;12.25;11.00;;;;;;;;3725852;38;20259;-53
2021/04/04 11:05:28;;;;;;;;;13.50;12.25;;;;;;;;3725522;37;20165;-52
2021/04/04 11:07:54;;;;;;;;;14.25;14.25;;;;;;;;3725440;38;20165;-52
2021/04/04 11:10:20;;;;;;;;;15.00;14.50;;;;;;;;3725346;38;18048;-52
2021/04/04 11:12:47;;;;;;;;;12.00;11.50;;;;;;;;3725578;37;20182;-52
2021/04/04 11:15:14;;;;;;;;;13.00;13.00;;;;;;;;3725254;37;18044;-52
2021/04/04 11:17:40;;;;;;;;;17.50;14.50;;;;;;;;3725231;37;20246;-52
2021/04/04 11:20:09;;;;;;;;;16.00;15.00;;;;;;;;3725230;38;20180;-52
2021/04/04 11:22:36;;;;;;;;;20.75;15.75;;;;;;;;3725190;37;20360;-53
2021/04/04 11:25:12;;;;;;;;;13.00;12.25;;;;;;;;3725340;38;20161;-52
2021/04/04 11:28:04;;;;;;;;;16.50;15.25;;;;;;;;3725370;37;20158;-52
2021/04/04 11:30:42;;;;;;;;;22.00;18.50;;;;;;;;3725161;37;20155;-53
2021/04/04 11:33:21;;;;;;;;;17.75;16.50;;;;;;;;3725346;38;20157;-52
2021/04/04 11:36:04;;;;;;;;;15.75;14.75;;;;;;;;3725384;38;20139;-52
2021/04/04 11:38:30;;;;;;;;;17.75;14.00;;;;;;;;3725286;38;20138;-52
2021/04/04 11:41:14;;;;;;;;;10.75;10.50;;;;;;;;3725543;38;20149;-51
2021/04/04 11:43:42;;;;;;;;;11.50;10.50;;;;;;;;3725382;37;20133;-52
2021/04/04 11:46:26;;;;;;;;;15.75;12.50;;;;;;;;3725050;37;20104;-53
2021/04/04 11:48:51;;;;;;;;;7.75;7.75;;;;;;;;3725258;38;20151;-53
2021/04/04 11:51:37;;;;;;;;;13.00;12.00;;;;;;;;3725116;37;20083;-52
2021/04/04 11:54:03;;;;;;;;;8.50;8.00;;;;;;;;3725408;37;18040;-52
2021/04/04 11:56:45;;;;;;;;;8.25;8.25;;;;;;;;3725249;37;20062;-52
2021/04/04 11:59:11;;;;;;;;;8.00;8.00;;;;;;;;3725137;37;20062;-51
2021/04/04 12:01:37;;;;;;;;;8.00;7.75;;;;;;;;3725213;37;20061;-51
2021/04/04 12:04:18;;;;;;;;;8.00;8.00;;;;;;;;3725232;37;20126;-51
2021/04/04 12:06:44;;;;;;;;;8.50;8.00;;;;;;;;3725177;38;18000;-52
2021/04/04 12:09:10;;;;;;;;;8.75;8.00;;;;;;;;3725316;37;20043;-52
2021/04/04 12:11:36;;;;;;;;;7.25;6.75;;;;;;;;3725255;38;17968;-52
2021/04/04 12:14:02;;;;;;;;;9.00;8.50;;;;;;;;3725343;37;20025;-53
2021/04/04 12:16:44;;;;;;;;;12.00;10.50;;;;;;;;3725031;37;17980;-53
2021/04/04 12:19:10;;;;;;;;;7.25;6.50;;;;;;;;3725192;37;20126;-52
2021/04/04 12:21:47;;;;;;;;;8.75;8.00;;;;;;;;3725208;38;19995;-53
2021/04/04 12:24:13;;;;;;;;;9.00;8.25;;;;;;;;3725351;37;17972;-55
2021/04/04 12:26:39;;;;;;;;;12.00;11.50;;;;;;;;3725366;37;19990;-52
2021/04/04 12:29:04;;;;;;;;;10.50;10.25;;;;;;;;3725291;37;17975;-52
2021/04/04 12:31:31;;;;;;;;;9.25;8.25;;;;;;;;3725599;37;17960;-54
2021/04/04 12:33:57;;;;;;;;;6.00;6.00;;;;;;;;3724395;37;17960;-52
2021/04/04 12:36:23;;;;;;;;;4.25;4.25;;;;;;;;3724667;38;20008;-52
2021/04/04 12:38:51;;;;;;;;;8.75;8.75;;;;;;;;3725157;37;20023;-53
2021/04/04 12:41:16;;;;;;;;;4.75;4.75;;;;;;;;3724912;37;17922;-52
2021/04/04 12:43:43;;;;;;;;;7.25;6.50;;;;;;;;3725172;38;20002;-53
2021/04/04 12:46:09;;;;;;;;;5.50;5.25;;;;;;;;3725328;37;17938;-52
2021/04/04 12:48:38;;;;;;;;;8.50;8.00;;;;;;;;3725191;37;19999;-52
2021/04/04 12:51:04;;;;;;;;;5.50;5.50;;;;;;;;3724590;38;19993;-52
2021/04/04 12:53:31;;;;;;;;;4.50;4.00;;;;;;;;3725231;38;20002;-52
2021/04/04 12:55:57;;;;;;;;;5.75;4.00;;;;;;;;3725251;38;17913;-53
2021/04/04 12:58:33;;;;;;;;;4.75;4.75;;;;;;;;3725234;37;19998;-52
2021/04/04 13:00:59;;;;;;;;;6.75;6.50;;;;;;;;3725296;38;17900;-53
2021/04/04 13:03:31;;;;;;;;;5.00;5.00;;;;;;;;3725318;37;19948;-53
2021/04/04 13:05:56;;;;;;;;;6.75;5.00;;;;;;;;3725310;37;19939;-52
2021/04/04 13:08:23;;;;;;;;;3.75;3.00;;;;;;;;3725334;38;19965;-53
2021/04/04 13:10:51;;;;;;;;;3.25;3.25;;;;;;;;3725261;37;17907;-53
2021/04/04 13:13:18;;;;;;;;;4.00;4.00;;;;;;;;3725256;37;19944;-53
2021/04/04 13:15:44;;;;;;;;;6.25;5.25;;;;;;;;3725394;37;19962;-54
2021/04/04 13:18:28;;;;;;;;;9.50;8.50;;;;;;;;3725303;37;19931;-54
2021/04/04 13:20:55;;;;;;;;;4.25;4.25;;;;;;;;3725355;37;19990;-53
2021/04/04 13:23:21;;;;;;;;;5.75;5.75;;;;;;;;3725437;37;19913;-52
2021/04/04 13:25:48;;;;;;;;;8.25;7.00;;;;;;;;3725391;38;19936;-53
2021/04/04 13:28:33;;;;;;;;;5.50;5.00;;;;;;;;3725269;37;19939;-53
2021/04/04 13:31:11;;;;;;;;;9.00;7.25;;;;;;;;3725423;38;19936;-53
2021/04/04 13:33:37;;;;;;;;;6.00;6.00;;;;;;;;3725191;38;19916;-53
2021/04/04 13:36:16;;;;;;;;;5.75;5.00;;;;;;;;3725313;38;20105;-52
2021/04/04 13:38:44;;;;;;;;;7.75;7.00;;;;;;;;3725261;37;17851;-53
2021/04/04 13:41:10;;;;;;;;;7.00;7.00;;;;;;;;3725292;37;19915;-52
2021/04/04 13:43:46;;;;;;;;;7.75;7.25;;;;;;;;3725324;38;19906;-53
2021/04/04 13:46:26;;;;;;;;;5.25;4.25;;;;;;;;3725393;37;19869;-51
2021/04/04 13:48:56;;;;;;;;;7.00;6.00;;;;;;;;3725189;37;19922;-51
2021/04/04 13:51:22;;;;;;;;;7.00;5.00;;;;;;;;3725181;37;19908;-52
2021/04/04 13:53:59;;;;;;;;;7.75;7.75;;;;;;;;3725376;38;19898;-50
2021/04/04 13:56:33;;;;;;;;;5.00;4.25;;;;;;;;3725308;38;19881;-50
2021/04/04 13:59:19;;;;;;;;;5.00;5.00;;;;;;;;3724662;37;19893;-51
2021/04/04 14:01:57;;;;;;;;;6.75;6.00;;;;;;;;3724897;37;19904;-51
2021/04/04 14:04:25;;;;;;;;;7.00;7.00;;;;;;;;3725328;38;19882;-52
2021/04/04 14:07:00;;;;;;;;;9.00;7.50;;;;;;;;3725289;37;19897;-53
2021/04/04 14:09:30;;;;;;;;;9.00;8.25;;;;;;;;3725476;37;19887;-51
2021/04/04 14:11:55;;;;;;;;;13.75;9.75;;;;;;;;3725220;38;19883;-51
2021/04/04 14:14:21;;;;;;;;;8.25;7.50;;;;;;;;3725266;38;19903;-51
2021/04/04 14:16:47;;;;;;;;;8.00;7.75;;;;;;;;3725357;38;17801;-52
2021/04/04 14:19:14;;;;;;;;;11.00;9.25;;;;;;;;3725417;37;17806;-53
2021/04/04 14:21:40;;;;;;;;;9.25;8.25;;;;;;;;3725343;38;19918;-53
2021/04/04 14:24:15;;;;;;;;;8.00;6.00;;;;;;;;3725344;37;19852;-53
2021/04/04 14:26:41;;;;;;;;;7.00;6.50;;;;;;;;3725384;37;17780;-56
2021/04/04 14:29:09;;;;;;;;;8.50;8.00;;;;;;;;3725233;38;19844;-53
2021/04/04 14:31:35;;;;;;;;;9.00;8.50;;;;;;;;3725393;37;17777;-54
2021/04/04 14:34:02;;;;;;;;;8.00;7.50;;;;;;;;3725269;38;19827;-54
2021/04/04 14:36:29;;;;;;;;;7.25;7.25;;;;;;;;3725220;37;19836;-54
2021/04/04 14:38:59;;;;;;;;;8.50;8.00;;;;;;;;3725138;37;19829;-53
2021/04/04 14:41:25;;;;;;;;;8.50;7.50;;;;;;;;3724994;38;19805;-54
2021/04/04 14:44:08;;;;;;;;;11.50;8.50;;;;;;;;3725170;38;19847;-53
2021/04/04 14:46:34;;;;;;;;;5.75;5.75;;;;;;;;3725147;38;19863;-53
2021/04/04 14:49:00;;;;;;;;;10.50;7.00;;;;;;;;3725184;37;19807;-52
2021/04/04 14:51:26;;;;;;;;;7.00;7.00;;;;;;;;3725161;38;17763;-55